KLYH/LYH METAR and TAF weather

Enter ICAO airport designator
Station Type Date Time Source
KLYH METAR 2021/10/24 20:54 UTC NOAA

KLYH 242054Z 17010KT 10SM CLR 24/10 A3008 RMK AO2 SLP178 T02440100 56012 $


Station Type Date Time Source
KLYH Decoded METAR 2021/10/24 20:54 UTC NOAA

LYNCHBURG REGIONAL AIRPORT, VA, United States (KLYH) 37-19N 079-12W 295M
Oct 24, 2021 - 04:54 PM EDT / 2021.10.24 2054 UTC
Wind: from the S (170 degrees) at 12 MPH (10 KT):0
Visibility: 10 mile(s):0
Sky conditions: clear
Temperature: 75.9 F (24.4 C)
Dew Point: 50.0 F (10.0 C)
Relative Humidity: 40%
Pressure (altimeter): 30.08 in. Hg (1018 hPa)
Pressure tendency: 0.04 inches (1.2 hPa) lower than three hours ago
ob: KLYH 242054Z 17010KT 10SM CLR 24/10 A3008 RMK AO2 SLP178 T02440100 56012
cycle: 21

Station Type Date Time Source
KLYH TAF 2021/10/24 18:22 UTC NOAA

TAF KLYH 241720Z 2418/2518 20008KT P6SM SKC
FM250100 19005KT P6SM SCT250
FM251400 20006KT P6SM BKN100

Example: see airport list